createdAt,value
2023-05-04T00:02:14.845Z,3.45
2023-05-04T00:04:42.944Z,3.00
2023-05-04T00:07:09.646Z,3.33
2023-05-04T00:09:36.661Z,3.30
2023-05-04T00:12:03.467Z,3.38
2023-05-04T00:14:30.139Z,3.17
2023-05-04T00:16:56.767Z,3.80
2023-05-04T00:19:23.314Z,3.28
2023-05-04T00:21:49.908Z,3.15
2023-05-04T00:24:16.497Z,3.25
2023-05-04T00:26:43.249Z,3.30
2023-05-04T00:29:09.829Z,3.58
2023-05-04T00:31:36.581Z,3.35
2023-05-04T00:34:03.231Z,3.30
2023-05-04T00:36:29.758Z,3.63
2023-05-04T00:38:56.476Z,3.80
2023-05-04T00:41:23.094Z,3.90
2023-05-04T00:43:49.819Z,4.13
2023-05-04T00:46:16.644Z,3.40
2023-05-04T00:48:45.722Z,4.18
2023-05-04T00:51:13.715Z,3.20
2023-05-04T00:53:40.523Z,3.25
2023-05-04T00:56:07.691Z,3.60
2023-05-04T00:58:34.609Z,3.63
2023-05-04T01:01:02.465Z,3.40
2023-05-04T01:03:29.292Z,3.20
2023-05-04T01:06:05.697Z,3.10
2023-05-04T01:08:32.963Z,3.20
2023-05-04T01:11:21.775Z,3.53
2023-05-04T01:13:49.842Z,3.25
2023-05-04T01:16:16.717Z,3.20
2023-05-04T01:18:43.342Z,3.70
2023-05-04T01:21:10.019Z,3.38
2023-05-04T01:23:37.001Z,3.95
2023-05-04T01:26:12.452Z,3.30
2023-05-04T01:28:42.731Z,3.38
2023-05-04T01:31:10.284Z,3.10
2023-05-04T01:33:37.933Z,3.63
2023-05-04T01:36:04.654Z,3.45
2023-05-04T01:38:31.507Z,3.92
2023-05-04T01:40:58.050Z,3.25
2023-05-04T01:43:24.710Z,3.15
2023-05-04T01:45:51.448Z,3.10
2023-05-04T01:48:18.409Z,3.40
2023-05-04T01:50:45.001Z,3.40
2023-05-04T01:53:11.576Z,3.40
2023-05-04T01:55:38.212Z,3.40
2023-05-04T01:58:04.815Z,3.35
2023-05-04T02:00:31.486Z,2.75
2023-05-04T02:02:58.110Z,3.00
2023-05-04T02:05:24.735Z,3.20
2023-05-04T02:07:51.523Z,3.13
2023-05-04T02:10:18.231Z,3.17
2023-05-04T02:12:44.841Z,3.10
2023-05-04T02:15:11.764Z,3.03
2023-05-04T02:17:38.369Z,2.60
2023-05-04T02:20:06.107Z,3.08
2023-05-04T02:22:33.087Z,2.75
2023-05-04T02:24:59.843Z,2.75
2023-05-04T02:27:26.418Z,2.80
2023-05-04T02:29:53.042Z,2.50
2023-05-04T02:32:19.763Z,3.10
2023-05-04T02:34:46.398Z,2.85
2023-05-04T02:37:13.075Z,2.88
2023-05-04T02:39:39.672Z,3.20
2023-05-04T02:42:06.254Z,2.92
2023-05-04T02:44:32.997Z,2.72
2023-05-04T02:46:59.654Z,3.08
2023-05-04T02:49:26.312Z,2.80
2023-05-04T02:51:52.897Z,2.60
2023-05-04T02:54:19.514Z,2.80
2023-05-04T02:56:46.150Z,2.60
2023-05-04T02:59:12.686Z,3.10
2023-05-04T03:01:39.331Z,3.80
2023-05-04T03:04:07.458Z,2.95
2023-05-04T03:06:34.056Z,3.08
2023-05-04T03:09:00.710Z,3.20
2023-05-04T03:11:27.310Z,2.80
2023-05-04T03:13:53.898Z,2.92
2023-05-04T03:16:21.167Z,2.95
2023-05-04T03:18:59.811Z,3.20
2023-05-04T03:21:26.470Z,2.95
2023-05-04T03:23:53.054Z,3.10
2023-05-04T03:26:19.658Z,2.55
2023-05-04T03:28:46.275Z,3.00
2023-05-04T03:31:12.866Z,2.83
2023-05-04T03:33:39.450Z,3.00
2023-05-04T03:36:06.353Z,3.30
2023-05-04T03:38:32.958Z,3.60
2023-05-04T03:40:59.508Z,3.83
2023-05-04T03:43:26.123Z,3.13
2023-05-04T03:45:52.698Z,3.25
2023-05-04T03:48:19.299Z,3.28
2023-05-04T03:50:46.089Z,3.40
2023-05-04T03:53:12.747Z,3.05
2023-05-04T03:55:39.338Z,2.97
2023-05-04T03:58:05.869Z,3.70
2023-05-04T04:00:32.471Z,3.53
2023-05-04T04:02:59.198Z,3.40
2023-05-04T04:05:25.979Z,3.60
2023-05-04T04:07:52.530Z,3.58
2023-05-04T04:10:19.288Z,3.85
2023-05-04T04:12:45.899Z,3.83
2023-05-04T04:15:12.645Z,3.63
2023-05-04T04:17:39.277Z,3.70
2023-05-04T04:20:06.790Z,3.10
2023-05-04T04:22:33.535Z,3.03
2023-05-04T04:25:00.136Z,2.90
2023-05-04T04:27:26.747Z,3.53
2023-05-04T04:29:53.298Z,3.60
2023-05-04T04:32:21.181Z,3.55
2023-05-04T04:34:47.749Z,3.55
2023-05-04T04:37:14.422Z,3.80
2023-05-04T04:39:41.288Z,3.83
2023-05-04T04:42:07.902Z,3.58
2023-05-04T04:44:34.940Z,3.72
2023-05-04T04:47:01.984Z,3.60
2023-05-04T04:49:28.889Z,2.90
2023-05-04T04:51:55.520Z,3.63
2023-05-04T04:54:22.078Z,3.25
2023-05-04T04:56:48.661Z,3.05
2023-05-04T04:59:15.284Z,3.35
2023-05-04T05:01:42.258Z,3.25
2023-05-04T05:04:08.876Z,2.85
2023-05-04T05:06:36.691Z,3.35
2023-05-04T05:09:04.030Z,3.10
2023-05-04T05:11:30.686Z,2.83
2023-05-04T05:13:59.849Z,3.10
2023-05-04T05:16:26.922Z,3.60
2023-05-04T05:18:53.490Z,2.85
2023-05-04T05:21:20.419Z,3.10
2023-05-04T05:23:47.146Z,3.55
2023-05-04T05:26:13.774Z,3.45
2023-05-04T05:28:40.330Z,2.95
2023-05-04T05:31:07.168Z,3.53
2023-05-04T05:33:33.779Z,3.15
2023-05-04T05:36:00.475Z,3.05
2023-05-04T05:38:27.477Z,3.00
2023-05-04T05:40:54.049Z,2.85
2023-05-04T05:43:20.590Z,3.13
2023-05-04T05:45:47.187Z,2.72
2023-05-04T05:48:13.774Z,3.17
2023-05-04T05:50:40.621Z,3.03
2023-05-04T05:53:07.230Z,2.65
2023-05-04T05:55:33.860Z,2.90
2023-05-04T05:58:00.529Z,3.05
2023-05-04T06:00:27.277Z,2.92
2023-05-04T06:02:55.931Z,3.10
2023-05-04T06:05:23.856Z,3.30
2023-05-04T06:07:50.479Z,3.42
2023-05-04T06:10:17.096Z,3.08
2023-05-04T06:12:43.677Z,3.10
2023-05-04T06:15:12.124Z,3.05
2023-05-04T06:20:06.479Z,2.97
2023-05-04T06:22:33.152Z,3.47
2023-05-04T06:25:03.684Z,3.00
2023-05-04T06:27:33.726Z,2.58
2023-05-04T06:30:00.355Z,3.50
2023-05-04T06:32:27.402Z,2.88
2023-05-04T06:34:57.457Z,3.65
2023-05-04T06:37:24.134Z,3.05
2023-05-04T06:39:50.950Z,2.92
2023-05-04T06:42:17.648Z,3.15
2023-05-04T06:44:44.392Z,3.10
2023-05-04T06:47:12.442Z,3.05
2023-05-04T06:49:39.025Z,2.97
2023-05-04T06:52:05.616Z,3.08
2023-05-04T06:54:32.619Z,3.30
2023-05-04T06:56:59.235Z,2.95
2023-05-04T06:59:27.087Z,3.42
2023-05-04T07:01:53.722Z,2.75
2023-05-04T07:04:23.416Z,2.72
2023-05-04T07:06:50.972Z,3.20
2023-05-04T07:09:18.997Z,3.00
2023-05-04T07:11:46.016Z,3.30
2023-05-04T07:14:12.590Z,3.42
2023-05-04T07:16:39.384Z,3.00
2023-05-04T07:19:06.090Z,2.78
2023-05-04T07:21:32.942Z,3.03
2023-05-04T07:23:59.581Z,2.92
2023-05-04T07:26:26.237Z,3.28
2023-05-04T07:28:53.159Z,3.38
2023-05-04T07:31:19.752Z,3.35
2023-05-04T07:33:46.445Z,3.65
2023-05-04T07:36:13.050Z,3.45
2023-05-04T07:38:39.746Z,3.63
2023-05-04T07:41:07.412Z,3.53
2023-05-04T07:43:34.049Z,3.22
2023-05-04T07:46:01.596Z,3.55
2023-05-04T07:48:28.171Z,2.77
2023-05-04T07:50:55.214Z,2.85
2023-05-04T07:53:21.968Z,2.35
2023-05-04T07:55:49.073Z,2.38
2023-05-04T07:58:16.801Z,2.40
2023-05-04T08:00:43.599Z,2.65
2023-05-04T08:03:10.272Z,2.53
2023-05-04T08:05:37.052Z,2.72
2023-05-04T08:08:03.659Z,2.20
2023-05-04T08:10:30.273Z,2.58
2023-05-04T08:12:57.015Z,2.80
2023-05-04T08:15:23.791Z,2.40
2023-05-04T08:17:50.544Z,2.70
2023-05-04T08:20:17.263Z,2.85
2023-05-04T08:22:43.871Z,2.30
2023-05-04T08:25:12.949Z,3.33
2023-05-04T08:27:39.629Z,3.22
2023-05-04T08:30:07.203Z,2.85
2023-05-04T08:32:33.811Z,2.33
2023-05-04T08:35:00.420Z,2.60
2023-05-04T08:37:27.090Z,3.40
2023-05-04T08:39:53.961Z,2.90
2023-05-04T08:42:28.043Z,2.90
2023-05-04T08:44:56.222Z,2.95
2023-05-04T08:47:23.249Z,3.08
2023-05-04T08:49:49.906Z,2.45
2023-05-04T08:52:17.216Z,2.70
2023-05-04T08:54:44.907Z,2.63
2023-05-04T08:57:12.561Z,2.38
2023-05-04T08:59:39.149Z,2.75
2023-05-04T09:02:06.229Z,2.88
2023-05-04T09:04:33.050Z,3.20
2023-05-04T09:06:59.654Z,2.72
2023-05-04T09:09:28.646Z,2.33
2023-05-04T09:11:55.352Z,2.70
2023-05-04T09:14:22.522Z,2.53
2023-05-04T09:16:49.194Z,2.63
2023-05-04T09:19:20.823Z,2.55
2023-05-04T09:21:49.303Z,2.60
2023-05-04T09:26:51.951Z,2.40
2023-05-04T09:29:18.558Z,2.67
2023-05-04T09:31:47.286Z,2.35
2023-05-04T09:34:15.130Z,2.97
2023-05-04T09:36:44.857Z,2.75
2023-05-04T09:39:12.649Z,2.67
2023-05-04T09:41:39.289Z,3.33
2023-05-04T09:44:06.474Z,2.83
2023-05-04T09:46:35.087Z,2.58
2023-05-04T09:49:03.052Z,2.60
2023-05-04T09:51:29.713Z,2.60
2023-05-04T09:53:58.281Z,2.83
2023-05-04T09:56:46.232Z,2.97
2023-05-04T09:59:12.849Z,2.58
2023-05-04T10:01:39.574Z,2.45
2023-05-04T10:04:07.069Z,2.45
2023-05-04T10:06:34.194Z,2.50
2023-05-04T10:09:01.744Z,2.10
2023-05-04T10:11:29.000Z,3.07
2023-05-04T10:13:57.272Z,2.40
2023-05-04T10:19:03.940Z,2.30
2023-05-04T10:22:02.142Z,2.75
2023-05-04T10:24:47.519Z,2.42
2023-05-04T10:28:21.861Z,2.55
2023-05-04T10:30:48.480Z,2.53
2023-05-04T10:33:15.142Z,2.67
2023-05-04T10:35:54.708Z,2.63
2023-05-04T10:38:32.875Z,2.80
2023-05-04T10:43:29.186Z,2.75
2023-05-04T10:45:57.748Z,2.92
2023-05-04T10:48:35.157Z,2.90
2023-05-04T10:51:01.803Z,2.88
2023-05-04T10:53:32.470Z,2.38
2023-05-04T10:55:59.142Z,2.40
2023-05-04T10:58:29.560Z,2.60
2023-05-04T11:00:56.328Z,3.15
2023-05-04T11:03:25.046Z,3.75
2023-05-04T11:05:55.124Z,3.22
2023-05-04T11:08:26.493Z,2.92
2023-05-04T11:11:03.969Z,3.72
2023-05-04T11:13:32.081Z,2.67
2023-05-04T11:15:58.696Z,3.00
2023-05-04T11:18:31.094Z,2.95
2023-05-04T11:20:58.225Z,3.72
2023-05-04T11:23:25.248Z,3.47
2023-05-04T11:25:52.018Z,2.85
2023-05-04T11:28:18.656Z,3.28
2023-05-04T11:30:47.667Z,3.17
2023-05-04T11:33:15.757Z,3.10
2023-05-04T11:35:43.883Z,3.17
2023-05-04T11:38:11.250Z,3.65
2023-05-04T11:40:41.101Z,3.22
2023-05-04T11:43:09.682Z,3.63
2023-05-04T11:45:37.813Z,3.10
2023-05-04T11:48:05.207Z,3.67
2023-05-04T11:50:31.983Z,3.73
2023-05-04T11:53:06.697Z,3.67
2023-05-04T11:55:33.465Z,3.00
2023-05-04T11:58:01.742Z,3.58
2023-05-04T12:00:56.182Z,2.78
2023-05-04T12:03:43.795Z,2.90
2023-05-04T12:06:18.423Z,2.67
2023-05-04T12:08:45.147Z,6.13
2023-05-04T12:11:16.350Z,3.63
2023-05-04T12:13:44.817Z,2.75
2023-05-04T12:18:39.153Z,2.42
2023-05-04T12:21:17.740Z,3.13
2023-05-04T12:23:44.931Z,2.30
2023-05-04T12:26:12.339Z,2.60
2023-05-04T12:28:41.791Z,56.53
2023-05-04T12:31:08.835Z,53.30
2023-05-04T12:33:36.178Z,17.08
2023-05-04T12:36:04.586Z,5.28
2023-05-04T12:41:00.371Z,13.30
2023-05-04T12:43:26.977Z,3.08
2023-05-04T12:45:53.831Z,2.10
2023-05-04T12:48:21.154Z,2.10
2023-05-04T12:50:49.454Z,2.40
2023-05-04T12:55:43.068Z,2.30
2023-05-04T12:58:10.081Z,2.30
2023-05-04T13:00:37.812Z,2.58
2023-05-04T13:03:05.517Z,3.13
2023-05-04T13:05:32.211Z,2.45
2023-05-04T13:07:59.079Z,1.98
2023-05-04T13:10:25.757Z,2.13
2023-05-04T13:12:52.573Z,2.67
2023-05-04T13:15:19.297Z,2.55
2023-05-04T13:17:45.955Z,2.67
2023-05-04T13:20:13.539Z,2.30
2023-05-04T13:22:40.674Z,2.10
2023-05-04T13:25:07.973Z,2.67
2023-05-04T13:27:34.878Z,2.58
2023-05-04T13:30:03.625Z,2.13
2023-05-04T13:32:30.967Z,2.20
2023-05-04T13:34:57.790Z,2.38
2023-05-04T13:37:24.401Z,2.38
2023-05-04T13:39:51.140Z,2.25
2023-05-04T13:42:17.995Z,2.20
2023-05-04T13:44:45.539Z,2.10
2023-05-04T13:47:18.527Z,2.50
2023-05-04T13:49:45.166Z,2.70
2023-05-04T13:52:11.802Z,2.75
2023-05-04T13:54:38.844Z,2.70
2023-05-04T13:57:05.394Z,1.92
2023-05-04T13:59:31.932Z,2.40
2023-05-04T14:01:58.754Z,1.88
2023-05-04T14:04:25.372Z,2.53
2023-05-04T14:06:52.137Z,2.38
2023-05-04T14:09:19.796Z,2.58
2023-05-04T14:11:46.784Z,2.25
2023-05-04T14:14:13.449Z,2.60
2023-05-04T14:16:40.177Z,2.55
2023-05-04T14:19:06.887Z,2.55
2023-05-04T14:21:33.564Z,2.00
2023-05-04T14:24:00.179Z,2.45
2023-05-04T14:26:26.877Z,1.92
2023-05-04T14:28:53.452Z,2.40
2023-05-04T14:31:20.112Z,1.75
2023-05-04T14:33:46.755Z,2.25
2023-05-04T14:36:13.861Z,1.80
2023-05-04T14:38:40.642Z,2.00
2023-05-04T14:41:07.648Z,1.90
2023-05-04T14:43:34.796Z,2.00
2023-05-04T14:46:01.852Z,1.73
2023-05-04T14:48:28.936Z,1.52
2023-05-04T14:50:55.757Z,2.00
2023-05-04T14:53:23.372Z,2.00
2023-05-04T14:55:50.832Z,1.95
2023-05-04T14:58:17.897Z,2.08
2023-05-04T15:00:45.264Z,1.77
2023-05-04T15:03:12.054Z,2.40
2023-05-04T15:05:38.867Z,1.90
2023-05-04T15:08:05.825Z,2.50
2023-05-04T15:10:32.450Z,2.13
2023-05-04T15:13:00.048Z,1.75
2023-05-04T15:15:26.892Z,1.85
2023-05-04T15:17:53.485Z,1.90
2023-05-04T15:20:20.233Z,1.80
2023-05-04T15:22:53.524Z,2.15
2023-05-04T15:25:23.852Z,2.03
2023-05-04T15:27:50.489Z,1.90
2023-05-04T15:30:17.308Z,2.35
2023-05-04T15:32:43.955Z,2.00
2023-05-04T15:35:10.585Z,2.10
2023-05-04T15:37:37.178Z,2.03
2023-05-04T15:40:04.904Z,1.98
2023-05-04T15:42:31.871Z,1.95
2023-05-04T15:44:58.429Z,1.77
2023-05-04T15:47:25.077Z,1.73
2023-05-04T15:49:52.442Z,1.90
2023-05-04T15:52:19.067Z,2.13
2023-05-04T15:54:47.336Z,2.00
2023-05-04T15:59:41.676Z,2.10
2023-05-04T16:02:09.802Z,2.00
2023-05-04T16:04:36.547Z,1.88
2023-05-04T16:07:03.135Z,2.00
2023-05-04T16:09:31.237Z,2.35
2023-05-04T16:11:57.938Z,1.95
2023-05-04T16:14:24.513Z,1.90
2023-05-04T16:16:51.118Z,1.83
2023-05-04T16:19:17.878Z,1.90
2023-05-04T16:21:44.500Z,2.13
2023-05-04T16:24:12.967Z,1.63
2023-05-04T16:26:40.368Z,2.13
2023-05-04T16:29:06.964Z,1.80
2023-05-04T16:31:33.905Z,2.03
2023-05-04T16:34:00.576Z,1.95
2023-05-04T16:36:27.219Z,1.80
2023-05-04T16:38:53.774Z,1.80
2023-05-04T16:41:20.360Z,1.90
2023-05-04T16:43:49.027Z,1.70
2023-05-04T16:46:15.843Z,2.08
2023-05-04T16:48:42.452Z,2.00
2023-05-04T16:51:09.125Z,2.20
2023-05-04T16:53:35.859Z,2.05
2023-05-04T16:56:02.534Z,2.00
2023-05-04T16:58:29.483Z,1.85
2023-05-04T17:00:56.195Z,1.80
2023-05-04T17:03:23.010Z,1.83
2023-05-04T17:05:49.660Z,2.20
2023-05-04T17:08:17.515Z,2.58
2023-05-04T17:10:44.087Z,1.80
2023-05-04T17:13:10.731Z,2.00
2023-05-04T17:15:37.354Z,1.98
2023-05-04T17:18:04.100Z,1.70
2023-05-04T17:20:32.069Z,1.98
2023-05-04T17:22:58.965Z,1.90
2023-05-04T17:25:27.017Z,2.30
2023-05-04T17:27:54.451Z,1.85
2023-05-04T17:30:21.291Z,1.60
2023-05-04T17:32:48.749Z,1.80
2023-05-04T17:35:24.615Z,1.87
2023-05-04T17:37:57.512Z,1.70
2023-05-04T17:40:24.866Z,2.10
2023-05-04T17:42:51.457Z,1.90
2023-05-04T17:45:18.147Z,1.52
2023-05-04T17:47:46.363Z,2.33
2023-05-04T17:50:13.076Z,2.08
2023-05-04T17:52:41.068Z,1.92
2023-05-04T17:55:08.922Z,2.42
2023-05-04T17:57:36.184Z,1.77
2023-05-04T18:00:05.665Z,1.95
2023-05-04T18:02:33.495Z,2.10
2023-05-04T18:05:00.153Z,2.35
2023-05-04T18:07:26.725Z,1.98
2023-05-04T18:09:53.271Z,2.13
2023-05-04T18:12:19.902Z,2.42
2023-05-04T18:14:46.475Z,2.38
2023-05-04T18:17:13.072Z,2.10
2023-05-04T18:19:39.827Z,2.08
2023-05-04T18:22:06.563Z,2.65
2023-05-04T18:24:34.049Z,2.05
2023-05-04T18:27:01.871Z,2.30
2023-05-04T18:29:28.588Z,1.77
2023-05-04T18:31:55.343Z,2.08
2023-05-04T18:34:22.079Z,2.13
2023-05-04T18:36:49.409Z,1.98
2023-05-04T18:39:16.108Z,2.30
2023-05-04T18:41:42.780Z,2.53
2023-05-04T18:44:10.069Z,2.30
2023-05-04T18:46:37.377Z,2.20
2023-05-04T18:49:03.933Z,2.70
2023-05-04T18:51:31.063Z,2.25
2023-05-04T18:53:57.724Z,2.30
2023-05-04T18:56:24.312Z,1.98
2023-05-04T18:58:50.894Z,2.35
2023-05-04T19:01:17.599Z,2.75
2023-05-04T19:03:47.052Z,2.40
2023-05-04T19:06:13.777Z,2.60
2023-05-04T19:08:40.392Z,2.42
2023-05-04T19:11:07.846Z,2.70
2023-05-04T19:13:34.457Z,2.80
2023-05-04T19:16:01.192Z,2.72
2023-05-04T19:18:27.854Z,3.20
2023-05-04T19:20:54.726Z,2.13
2023-05-04T19:23:21.328Z,2.78
2023-05-04T19:25:48.095Z,2.75
2023-05-04T19:28:14.661Z,3.55
2023-05-04T19:30:41.681Z,3.25
2023-05-04T19:33:08.654Z,3.10
2023-05-04T19:35:35.738Z,3.05
2023-05-04T19:38:02.380Z,3.20
2023-05-04T19:40:31.096Z,4.05
2023-05-04T19:42:57.854Z,3.10
2023-05-04T19:45:24.544Z,3.78
2023-05-04T19:47:52.413Z,3.40
2023-05-04T19:50:20.097Z,3.63
2023-05-04T19:52:46.795Z,3.65
2023-05-04T19:55:13.492Z,3.53
2023-05-04T19:57:40.103Z,3.80
2023-05-04T20:00:09.709Z,3.58
2023-05-04T20:02:38.201Z,3.50
2023-05-04T20:05:07.865Z,3.65
2023-05-04T20:07:34.634Z,3.90
2023-05-04T20:10:01.673Z,3.92
2023-05-04T20:12:28.320Z,3.78
2023-05-04T20:14:54.882Z,3.72
2023-05-04T20:17:21.471Z,3.40
2023-05-04T20:19:48.328Z,3.65
2023-05-04T20:22:15.374Z,3.15
2023-05-04T20:24:42.244Z,3.30
2023-05-04T20:27:08.886Z,3.35
2023-05-04T20:29:35.516Z,3.83
2023-05-04T20:32:02.930Z,3.65
2023-05-04T20:34:29.543Z,4.07
2023-05-04T20:36:56.442Z,3.90
2023-05-04T20:39:23.142Z,3.80
2023-05-04T20:41:50.548Z,4.10
2023-05-04T20:44:17.298Z,4.03
2023-05-04T20:46:45.190Z,3.75
2023-05-04T20:49:12.403Z,4.00
2023-05-04T20:51:38.998Z,3.65
2023-05-04T20:54:05.651Z,4.25
2023-05-04T20:56:32.247Z,4.15
2023-05-04T20:58:58.849Z,3.15
2023-05-04T21:01:25.641Z,3.80
2023-05-04T21:03:52.479Z,3.50
2023-05-04T21:06:19.209Z,3.83
2023-05-04T21:08:45.836Z,3.80
2023-05-04T21:11:12.442Z,4.13
2023-05-04T21:13:39.022Z,3.75
2023-05-04T21:16:05.852Z,3.50
2023-05-04T21:18:32.537Z,4.03
2023-05-04T21:20:59.079Z,3.53
2023-05-04T21:23:26.359Z,4.38
2023-05-04T21:26:00.439Z,3.90
2023-05-04T21:28:27.032Z,3.72
2023-05-04T21:30:53.579Z,3.80
2023-05-04T21:33:20.338Z,3.90
2023-05-04T21:35:46.912Z,4.72
2023-05-04T21:38:14.092Z,4.00
2023-05-04T21:40:40.964Z,3.35
2023-05-04T21:43:07.897Z,4.43
2023-05-04T21:45:34.461Z,4.07
2023-05-04T21:48:02.545Z,3.22
2023-05-04T21:50:29.305Z,4.18
2023-05-04T21:52:55.877Z,3.85
2023-05-04T21:55:22.635Z,3.85
2023-05-04T21:57:49.254Z,3.83
2023-05-04T22:00:19.178Z,3.40
2023-05-04T22:02:45.925Z,3.35
2023-05-04T22:05:12.714Z,4.05
2023-05-04T22:07:39.342Z,3.63
2023-05-04T22:10:06.747Z,3.70
2023-05-04T22:12:33.500Z,4.20
2023-05-04T22:15:00.171Z,3.30
2023-05-04T22:17:27.324Z,4.07
2023-05-04T22:19:53.967Z,3.45
2023-05-04T22:22:20.564Z,3.15
2023-05-04T22:24:47.107Z,3.90
2023-05-04T22:27:13.702Z,2.95
2023-05-04T22:29:40.402Z,4.20
2023-05-04T22:32:07.728Z,3.55
2023-05-04T22:34:34.376Z,3.72
2023-05-04T22:37:01.394Z,3.58
2023-05-04T22:39:28.063Z,3.50
2023-05-04T22:41:54.673Z,3.92
2023-05-04T22:44:21.240Z,3.80
2023-05-04T22:46:49.343Z,3.40
2023-05-04T22:49:17.412Z,3.45
2023-05-04T22:51:43.978Z,3.47
2023-05-04T22:54:10.538Z,3.50
2023-05-04T22:56:37.094Z,3.45
2023-05-04T22:59:03.757Z,3.28
2023-05-04T23:01:30.898Z,3.75
2023-05-04T23:03:57.608Z,3.58
2023-05-04T23:06:24.337Z,3.30
2023-05-04T23:08:50.889Z,3.38
2023-05-04T23:11:21.128Z,3.53
2023-05-04T23:13:47.796Z,3.60
2023-05-04T23:16:14.436Z,3.58
2023-05-04T23:18:41.054Z,3.45
2023-05-04T23:21:07.624Z,3.20
2023-05-04T23:23:34.617Z,3.20
2023-05-04T23:26:01.172Z,3.35
2023-05-04T23:28:27.747Z,3.30
2023-05-04T23:30:55.752Z,3.42
2023-05-04T23:33:22.467Z,3.58
2023-05-04T23:35:49.272Z,3.70
2023-05-04T23:38:15.885Z,3.20
2023-05-04T23:40:42.530Z,3.40
2023-05-04T23:43:09.124Z,3.20
2023-05-04T23:45:35.770Z,3.78
2023-05-04T23:48:02.444Z,3.25
2023-05-04T23:50:29.100Z,3.65
2023-05-04T23:52:55.696Z,3.58
2023-05-04T23:55:22.328Z,3.10
2023-05-04T23:57:49.216Z,3.78
